Terminal Aerodrome Forecast
Issued by NWS

Home | Current Version | Previous Version | Text Only | Print | Product List | Glossary Off
Versions: 1 2 3 4 5 6 7 8 9 10 11 12 13 14

467
FTUS42 KMHX 072320
TAFPGV
TAF
KPGV 072320Z 0800/0824 35015G25KT 6SM -RAPL SCT030 OVC060
      TEMPO 0800/0801 5SM -RAPL BKN030
     FM080400 34011G20KT P6SM BKN060
     FM080800 32007KT P6SM SCT090
      AMD LTD TO CLD VIS AND WIND=

USA.gov is the U.S. government's official web portal to all federal, state and local government web resources and services.